createdAt,value
2023-04-04T00:00:51.355Z,78.42
2023-04-04T00:01:53.531Z,78.62
2023-04-04T00:02:55.641Z,78.67
2023-04-04T00:03:58.041Z,78.73
2023-04-04T00:05:00.218Z,78.67
2023-04-04T00:06:02.998Z,78.71
2023-04-04T00:07:05.044Z,78.63
2023-04-04T00:08:06.913Z,78.58
2023-04-04T00:09:09.156Z,78.50
2023-04-04T00:10:12.286Z,78.50
2023-04-04T00:11:14.436Z,78.54
2023-04-04T00:12:16.613Z,78.64
2023-04-04T00:13:18.780Z,78.73
2023-04-04T00:14:21.132Z,78.81
2023-04-04T00:15:23.519Z,78.76
2023-04-04T00:16:26.352Z,78.91
2023-04-04T00:17:28.490Z,78.84
2023-04-04T00:18:30.590Z,78.75
2023-04-04T00:19:33.066Z,78.78
2023-04-04T00:20:35.748Z,78.91
2023-04-04T00:21:37.784Z,78.86
2023-04-04T00:22:39.770Z,78.94
2023-04-04T00:23:41.669Z,78.88
2023-04-04T00:24:43.695Z,78.90
2023-04-04T00:25:52.898Z,78.85
2023-04-04T00:26:55.209Z,78.86
2023-04-04T00:27:57.385Z,78.96
2023-04-04T00:29:00.113Z,79.02
2023-04-04T00:30:02.606Z,79.06
2023-04-04T00:31:05.262Z,79.05
2023-04-04T00:32:08.139Z,79.03
2023-04-04T00:33:10.491Z,78.99
2023-04-04T00:34:12.781Z,78.81
2023-04-04T00:35:15.461Z,78.67
2023-04-04T00:36:17.747Z,78.73
2023-04-04T00:37:20.313Z,78.61
2023-04-04T00:38:22.460Z,78.65
2023-04-04T00:39:25.243Z,78.54
2023-04-04T00:40:27.635Z,78.46
2023-04-04T00:41:30.275Z,78.39
2023-04-04T00:42:33.340Z,78.42
2023-04-04T00:43:35.662Z,78.53
2023-04-04T00:44:37.817Z,78.71
2023-04-04T00:45:40.823Z,78.80
2023-04-04T00:46:43.521Z,78.85
2023-04-04T00:47:47.069Z,78.92
2023-04-04T00:48:50.428Z,79.08
2023-04-04T00:49:53.380Z,79.07
2023-04-04T00:50:55.625Z,78.94
2023-04-04T00:51:57.881Z,78.77
2023-04-04T00:53:00.118Z,78.64
2023-04-04T00:54:02.992Z,78.58
2023-04-04T00:55:06.619Z,78.56
2023-04-04T00:56:09.526Z,78.57
2023-04-04T00:57:12.013Z,78.47
2023-04-04T00:58:14.284Z,78.43
2023-04-04T00:59:16.623Z,78.46
2023-04-04T01:00:19.397Z,78.52
2023-04-04T01:01:22.841Z,78.34
2023-04-04T01:02:25.449Z,78.29
2023-04-04T01:03:27.912Z,78.36
2023-04-04T01:04:32.036Z,78.19
2023-04-04T01:05:34.354Z,78.12
2023-04-04T01:06:37.322Z,78.24
2023-04-04T01:07:44.185Z,78.15
2023-04-04T01:09:58.349Z,78.27
2023-04-04T01:11:01.394Z,78.64
2023-04-04T01:12:05.089Z,78.50
2023-04-04T01:13:08.432Z,78.53
2023-04-04T01:14:10.658Z,78.45
2023-04-04T01:15:13.366Z,78.42
2023-04-04T01:16:16.008Z,78.52
2023-04-04T01:17:18.946Z,78.56
2023-04-04T01:18:23.725Z,78.62
2023-04-04T01:19:30.000Z,78.62
2023-04-04T01:20:35.380Z,78.77
2023-04-04T01:21:39.836Z,78.82
2023-04-04T01:22:45.564Z,78.84
2023-04-04T01:24:02.153Z,78.75
2023-04-04T01:25:19.071Z,78.70
2023-04-04T01:26:23.278Z,78.56
2023-04-04T01:27:26.092Z,78.54
2023-04-04T01:28:30.754Z,78.34
2023-04-04T01:29:33.463Z,78.24
2023-04-04T01:30:38.671Z,78.28
2023-04-04T01:31:51.386Z,78.41
2023-04-04T01:34:33.441Z,78.38
2023-04-04T01:35:42.070Z,78.26
2023-04-04T01:36:54.137Z,78.24
2023-04-04T01:38:31.481Z,78.25
2023-04-04T01:39:43.453Z,78.37
2023-04-04T01:40:50.363Z,78.32
2023-04-04T01:41:56.245Z,78.36
2023-04-04T01:42:58.762Z,78.36
2023-04-04T01:44:02.892Z,78.28
2023-04-04T01:45:07.487Z,78.34
2023-04-04T01:46:11.401Z,78.30
2023-04-04T01:47:14.634Z,78.38
2023-04-04T01:48:17.528Z,78.45
2023-04-04T01:49:22.529Z,78.59
2023-04-04T01:50:24.973Z,78.76
2023-04-04T01:51:28.339Z,78.86
2023-04-04T01:52:30.784Z,78.77
2023-04-04T01:53:33.574Z,78.78
2023-04-04T01:54:35.637Z,78.78
2023-04-04T01:55:37.939Z,78.70
2023-04-04T01:56:40.995Z,78.54
2023-04-04T01:57:43.161Z,78.56
2023-04-04T01:58:45.738Z,78.62
2023-04-04T01:59:47.947Z,78.66
2023-04-04T02:00:50.247Z,78.55
2023-04-04T02:01:52.582Z,78.49
2023-04-04T02:02:55.111Z,78.48
2023-04-04T02:03:57.221Z,78.55
2023-04-04T02:04:59.478Z,78.57
2023-04-04T02:06:01.386Z,78.49
2023-04-04T02:07:03.559Z,78.42
2023-04-04T02:08:06.220Z,78.52
2023-04-04T02:09:10.332Z,78.56
2023-04-04T02:10:13.135Z,78.42
2023-04-04T02:11:15.412Z,78.28
2023-04-04T02:12:17.856Z,78.34
2023-04-04T02:13:20.011Z,78.36
2023-04-04T02:14:23.506Z,78.27
2023-04-04T02:15:25.923Z,78.32
2023-04-04T02:16:29.182Z,78.40
2023-04-04T02:17:31.613Z,78.47
2023-04-04T02:18:33.781Z,78.48
2023-04-04T02:19:35.936Z,78.50
2023-04-04T02:20:38.400Z,78.58
2023-04-04T02:21:41.070Z,78.45
2023-04-04T02:22:43.178Z,78.35
2023-04-04T02:23:46.284Z,78.13
2023-04-04T02:24:49.951Z,78.08
2023-04-04T02:25:52.200Z,78.20
2023-04-04T02:26:54.880Z,78.18
2023-04-04T02:27:57.043Z,78.20
2023-04-04T02:28:59.830Z,78.10
2023-04-04T02:30:02.010Z,78.16
2023-04-04T02:31:05.285Z,78.02
2023-04-04T02:32:08.672Z,78.02
2023-04-04T02:33:11.954Z,78.10
2023-04-04T02:34:14.464Z,78.17
2023-04-04T02:35:17.149Z,78.33
2023-04-04T02:36:19.355Z,78.43
2023-04-04T02:37:22.472Z,78.59
2023-04-04T02:38:26.489Z,78.62
2023-04-04T02:39:28.789Z,78.51
2023-04-04T02:40:31.029Z,78.52
2023-04-04T02:41:34.071Z,78.36
2023-04-04T02:42:43.155Z,78.28
2023-04-04T02:43:45.333Z,78.27
2023-04-04T02:44:47.609Z,78.23
2023-04-04T02:45:51.208Z,78.17
2023-04-04T02:46:58.350Z,78.14
2023-04-04T02:48:02.430Z,78.25
2023-04-04T02:49:06.620Z,78.19
2023-04-04T02:50:10.088Z,78.29
2023-04-04T02:51:12.981Z,78.39
2023-04-04T02:52:15.148Z,78.52
2023-04-04T02:53:19.316Z,78.57
2023-04-04T02:54:23.210Z,78.61
2023-04-04T02:55:25.474Z,78.53
2023-04-04T02:56:27.849Z,78.53
2023-04-04T02:57:30.102Z,78.59
2023-04-04T02:58:32.402Z,78.66
2023-04-04T02:59:34.618Z,78.73
2023-04-04T03:00:37.305Z,78.75
2023-04-04T03:01:39.962Z,78.80
2023-04-04T03:02:42.276Z,78.84
2023-04-04T03:03:45.425Z,78.90
2023-04-04T03:04:48.256Z,79.02
2023-04-04T03:05:50.977Z,79.04
2023-04-04T03:06:53.187Z,79.08
2023-04-04T03:07:57.238Z,79.15
2023-04-04T03:08:59.814Z,79.17
2023-04-04T03:10:02.738Z,79.15
2023-04-04T03:11:04.901Z,79.03
2023-04-04T03:12:07.162Z,78.98
2023-04-04T03:13:10.069Z,79.04
2023-04-04T03:14:12.310Z,79.05
2023-04-04T03:15:15.012Z,79.01
2023-04-04T03:16:18.112Z,79.08
2023-04-04T03:17:22.700Z,79.06
2023-04-04T03:18:24.906Z,79.09
2023-04-04T03:19:27.789Z,79.06
2023-04-04T03:20:30.006Z,79.13
2023-04-04T03:21:32.152Z,79.18
2023-04-04T03:22:34.299Z,79.26
2023-04-04T03:23:37.224Z,79.31
2023-04-04T03:24:40.301Z,79.30
2023-04-04T03:25:42.696Z,79.48
2023-04-04T03:26:44.938Z,79.56
2023-04-04T03:27:47.506Z,79.48
2023-04-04T03:28:51.540Z,79.66
2023-04-04T03:29:57.260Z,79.87
2023-04-04T03:32:13.343Z,80.05
2023-04-04T03:33:15.780Z,80.20
2023-04-04T03:34:18.241Z,80.15
2023-04-04T03:35:20.448Z,80.07
2023-04-04T03:36:22.858Z,79.98
2023-04-04T03:37:25.647Z,79.90
2023-04-04T03:38:27.577Z,80.03
2023-04-04T03:39:29.667Z,80.17
2023-04-04T03:40:32.459Z,80.14
2023-04-04T03:41:35.799Z,79.98
2023-04-04T03:42:38.001Z,79.87
2023-04-04T03:43:42.169Z,79.83
2023-04-04T03:44:44.925Z,79.87
2023-04-04T03:45:48.896Z,79.86
2023-04-04T03:46:51.087Z,79.85
2023-04-04T03:47:53.786Z,79.81
2023-04-04T03:48:57.872Z,79.70
2023-04-04T03:50:00.083Z,79.62
2023-04-04T03:51:03.158Z,79.66
2023-04-04T03:52:05.966Z,79.75
2023-04-04T03:53:07.913Z,79.78
2023-04-04T03:54:10.386Z,79.74
2023-04-04T03:55:13.043Z,79.71
2023-04-04T03:56:15.331Z,79.63
2023-04-04T03:57:17.481Z,79.48
2023-04-04T03:58:19.744Z,79.45
2023-04-04T03:59:22.007Z,79.38
2023-04-04T04:00:24.488Z,79.25
2023-04-04T04:01:26.748Z,79.37
2023-04-04T04:02:28.865Z,79.37
2023-04-04T04:03:31.194Z,79.44
2023-04-04T04:04:33.582Z,79.46
2023-04-04T04:05:35.801Z,79.44
2023-04-04T04:06:38.763Z,79.40
2023-04-04T04:07:43.712Z,79.43
2023-04-04T04:08:46.035Z,79.39
2023-04-04T04:09:48.180Z,79.32
2023-04-04T04:10:50.545Z,79.28
2023-04-04T04:11:53.188Z,79.32
2023-04-04T04:12:55.536Z,79.31
2023-04-04T04:13:58.313Z,79.36
2023-04-04T04:15:00.603Z,79.35
2023-04-04T04:16:05.100Z,79.45
2023-04-04T04:17:07.893Z,79.58
2023-04-04T04:18:10.162Z,79.59
2023-04-04T04:19:12.264Z,79.54
2023-04-04T04:20:16.121Z,79.60
2023-04-04T04:21:20.222Z,79.46
2023-04-04T04:22:22.705Z,79.44
2023-04-04T04:23:25.463Z,79.46
2023-04-04T04:24:27.922Z,79.47
2023-04-04T04:25:30.163Z,79.48
2023-04-04T04:26:39.955Z,79.51
2023-04-04T04:27:44.070Z,79.54
2023-04-04T04:28:46.897Z,79.55
2023-04-04T04:29:50.150Z,79.48
2023-04-04T04:30:52.987Z,79.46
2023-04-04T04:31:57.202Z,79.48
2023-04-04T04:33:01.629Z,79.64
2023-04-04T04:34:07.391Z,79.75
2023-04-04T04:35:10.955Z,79.81
2023-04-04T04:36:13.700Z,79.80
2023-04-04T04:37:34.701Z,79.77
2023-04-04T04:38:37.846Z,79.69
2023-04-04T04:39:40.419Z,79.67
2023-04-04T04:40:48.801Z,79.58
2023-04-04T04:41:53.046Z,79.29
2023-04-04T04:42:55.399Z,79.27
2023-04-04T04:43:57.758Z,79.19
2023-04-04T04:45:01.931Z,79.23
2023-04-04T04:46:05.623Z,79.12
2023-04-04T04:47:08.008Z,79.13
2023-04-04T04:48:12.408Z,79.20
2023-04-04T04:49:16.478Z,79.31
2023-04-04T04:50:19.376Z,79.35
2023-04-04T04:51:23.777Z,79.18
2023-04-04T04:52:28.040Z,79.13
2023-04-04T04:53:30.314Z,79.21
2023-04-04T04:54:34.105Z,79.23
2023-04-04T04:55:36.263Z,79.21
2023-04-04T04:56:40.372Z,79.21
2023-04-04T04:57:47.040Z,79.15
2023-04-04T04:58:51.124Z,79.08
2023-04-04T04:59:58.517Z,79.00
2023-04-04T05:01:01.973Z,78.98
2023-04-04T05:02:06.517Z,79.07
2023-04-04T05:03:10.528Z,79.15
2023-04-04T05:04:14.518Z,79.06
2023-04-04T05:05:18.562Z,78.96
2023-04-04T05:06:21.515Z,78.83
2023-04-04T05:07:24.811Z,78.75
2023-04-04T05:08:28.642Z,78.75
2023-04-04T05:09:32.798Z,78.79
2023-04-04T05:10:35.180Z,78.70
2023-04-04T05:11:37.361Z,78.69
2023-04-04T05:12:43.754Z,78.66
2023-04-04T05:13:47.780Z,78.64
2023-04-04T05:14:50.777Z,78.62
2023-04-04T05:15:53.544Z,78.70
2023-04-04T05:16:56.426Z,78.66
2023-04-04T05:18:00.612Z,78.68
2023-04-04T05:19:03.184Z,78.57
2023-04-04T05:20:10.985Z,78.55
2023-04-04T05:21:13.555Z,78.42
2023-04-04T05:22:16.164Z,78.43
2023-04-04T05:23:21.238Z,78.50
2023-04-04T05:24:23.341Z,78.57
2023-04-04T05:25:25.539Z,78.47
2023-04-04T05:26:27.554Z,78.44
2023-04-04T05:27:29.995Z,78.40
2023-04-04T05:28:34.937Z,78.53
2023-04-04T05:29:39.049Z,78.65
2023-04-04T05:30:42.340Z,78.69
2023-04-04T05:31:46.874Z,78.73
2023-04-04T05:32:51.533Z,78.80
2023-04-04T05:33:56.294Z,78.82
2023-04-04T05:35:00.717Z,78.54
2023-04-04T05:36:05.280Z,78.48
2023-04-04T05:38:17.695Z,78.49
2023-04-04T05:39:20.382Z,78.64
2023-04-04T05:40:24.464Z,78.68
2023-04-04T05:41:28.858Z,78.62
2023-04-04T05:42:32.993Z,78.57
2023-04-04T05:43:36.152Z,78.67
2023-04-04T05:44:44.190Z,78.74
2023-04-04T05:45:46.845Z,78.63
2023-04-04T05:47:58.265Z,78.68
2023-04-04T05:49:00.974Z,78.78
2023-04-04T05:50:03.972Z,78.78
2023-04-04T05:51:07.456Z,78.87
2023-04-04T05:52:11.468Z,78.90
2023-04-04T05:53:14.418Z,78.96
2023-04-04T05:55:26.776Z,78.92
2023-04-04T05:56:30.147Z,79.19
2023-04-04T05:57:35.239Z,79.29
2023-04-04T05:58:38.028Z,79.46
2023-04-04T05:59:40.086Z,79.43
2023-04-04T06:00:44.114Z,79.40
2023-04-04T06:01:46.246Z,79.42
2023-04-04T06:02:50.454Z,79.57
2023-04-04T06:03:54.832Z,79.57
2023-04-04T06:04:58.914Z,79.51
2023-04-04T06:06:10.280Z,79.48
2023-04-04T06:07:13.090Z,79.34
2023-04-04T06:08:17.614Z,79.31
2023-04-04T06:09:20.059Z,79.41
2023-04-04T06:10:22.371Z,79.42
2023-04-04T06:11:25.295Z,79.31
2023-04-04T06:12:29.691Z,79.06
2023-04-04T06:13:31.955Z,78.97
2023-04-04T06:14:36.402Z,79.02
2023-04-04T06:15:40.441Z,79.08
2023-04-04T06:16:42.554Z,79.12
2023-04-04T06:17:45.165Z,79.29
2023-04-04T06:18:48.258Z,79.47
2023-04-04T06:19:50.521Z,79.62
2023-04-04T06:20:52.886Z,79.57
2023-04-04T06:21:55.062Z,79.41
2023-04-04T06:22:58.425Z,79.19
2023-04-04T06:24:01.939Z,79.01
2023-04-04T06:25:04.814Z,79.02
2023-04-04T06:27:16.591Z,78.90
2023-04-04T06:28:19.455Z,79.21
2023-04-04T06:29:23.062Z,79.33
2023-04-04T06:30:25.459Z,79.51
2023-04-04T06:31:28.031Z,79.39
2023-04-04T06:32:33.242Z,79.30
2023-04-04T06:33:36.613Z,79.24
2023-04-04T06:34:39.572Z,79.12
2023-04-04T06:35:45.130Z,78.97
2023-04-04T06:36:48.313Z,79.05
2023-04-04T06:37:55.804Z,79.09
2023-04-04T06:38:59.670Z,79.10
2023-04-04T06:40:01.720Z,79.14
2023-04-04T06:41:04.849Z,79.19
2023-04-04T06:42:07.113Z,79.06
2023-04-04T06:43:10.996Z,78.92
2023-04-04T06:44:15.086Z,78.93
2023-04-04T06:45:17.357Z,78.91
2023-04-04T06:46:19.947Z,78.85
2023-04-04T06:47:22.744Z,78.91
2023-04-04T06:48:25.091Z,79.04
2023-04-04T06:49:27.764Z,78.99
2023-04-04T06:50:31.288Z,79.02
2023-04-04T06:51:34.341Z,79.04
2023-04-04T06:52:39.113Z,78.96
2023-04-04T06:53:40.895Z,78.91
2023-04-04T06:54:43.135Z,78.86
2023-04-04T06:55:45.190Z,78.84
2023-04-04T06:56:47.787Z,78.78
2023-04-04T06:57:49.922Z,78.76
2023-04-04T06:58:53.148Z,78.75
2023-04-04T06:59:56.645Z,78.69
2023-04-04T07:00:58.666Z,78.61
2023-04-04T07:02:00.925Z,78.75
2023-04-04T07:03:03.112Z,78.76
2023-04-04T07:04:05.243Z,78.75
2023-04-04T07:05:08.230Z,78.59
2023-04-04T07:06:11.529Z,78.48
2023-04-04T07:07:13.551Z,78.50
2023-04-04T07:08:15.650Z,78.44
2023-04-04T07:09:28.195Z,78.44
2023-04-04T07:10:22.908Z,78.51
2023-04-04T07:11:24.995Z,78.40
2023-04-04T07:12:27.083Z,78.35
2023-04-04T07:13:29.479Z,78.18
2023-04-04T07:14:31.556Z,78.09
2023-04-04T07:15:33.614Z,78.07
2023-04-04T07:16:35.725Z,77.97
2023-04-04T07:17:38.014Z,77.93
2023-04-04T07:18:40.806Z,78.11
2023-04-04T07:19:42.999Z,78.10
2023-04-04T07:20:48.589Z,78.15
2023-04-04T07:21:51.888Z,78.33
2023-04-04T07:22:54.113Z,78.26
2023-04-04T07:23:56.284Z,78.36
2023-04-04T07:24:58.466Z,78.34
2023-04-04T07:26:00.547Z,78.18
2023-04-04T07:27:03.290Z,78.03
2023-04-04T07:28:12.844Z,78.06
2023-04-04T07:30:18.781Z,78.00
2023-04-04T07:31:20.868Z,77.94
2023-04-04T07:32:24.642Z,77.94
2023-04-04T07:33:27.493Z,77.99
2023-04-04T07:34:30.007Z,77.88
2023-04-04T07:35:32.547Z,77.96
2023-04-04T07:36:35.199Z,78.10
2023-04-04T07:37:37.867Z,78.09
2023-04-04T07:38:40.018Z,78.10
2023-04-04T07:39:44.893Z,78.27
2023-04-04T07:40:52.057Z,78.20
2023-04-04T07:41:54.776Z,78.20
2023-04-04T07:42:57.503Z,78.09
2023-04-04T07:43:59.710Z,77.97
2023-04-04T07:45:03.871Z,77.92
2023-04-04T07:46:06.922Z,77.97
2023-04-04T07:47:10.501Z,78.01
2023-04-04T07:48:12.859Z,78.07
2023-04-04T07:49:14.967Z,78.04
2023-04-04T07:50:17.274Z,78.11
2023-04-04T07:51:19.216Z,78.12
2023-04-04T07:52:21.693Z,77.89
2023-04-04T07:53:24.521Z,77.85
2023-04-04T07:54:26.672Z,77.78
2023-04-04T07:55:28.817Z,77.63
2023-04-04T07:56:30.885Z,77.66
2023-04-04T07:57:36.070Z,77.69
2023-04-04T07:58:38.171Z,77.67
2023-04-04T07:59:40.745Z,77.66
2023-04-04T08:00:43.392Z,77.57
2023-04-04T08:01:46.313Z,77.66
2023-04-04T08:02:56.013Z,77.77
2023-04-04T08:03:58.615Z,77.88
2023-04-04T08:05:00.863Z,77.85
2023-04-04T08:06:03.806Z,77.75
2023-04-04T08:07:05.970Z,77.69
2023-04-04T08:08:08.241Z,77.69
2023-04-04T08:09:10.211Z,77.61
2023-04-04T08:10:12.616Z,77.56
2023-04-04T08:11:14.672Z,77.55
2023-04-04T08:12:17.030Z,77.67
2023-04-04T08:13:19.511Z,77.71
2023-04-04T08:14:21.960Z,77.70
2023-04-04T08:15:24.139Z,77.71
2023-04-04T08:16:26.327Z,77.77
2023-04-04T08:17:29.036Z,77.87
2023-04-04T08:18:31.422Z,77.87
2023-04-04T08:19:33.488Z,78.03
2023-04-04T08:20:35.870Z,78.13
2023-04-04T08:21:37.939Z,78.17
2023-04-04T08:22:41.482Z,78.10
2023-04-04T08:23:44.034Z,78.04
2023-04-04T08:24:46.806Z,78.04
2023-04-04T08:25:49.370Z,78.21
2023-04-04T08:27:01.813Z,78.34
2023-04-04T08:27:55.635Z,78.42
2023-04-04T08:28:58.351Z,78.14
2023-04-04T08:30:00.874Z,77.91
2023-04-04T08:31:03.471Z,77.84
2023-04-04T08:32:05.660Z,77.82
2023-04-04T08:33:07.880Z,77.89
2023-04-04T08:34:10.082Z,77.84
2023-04-04T08:35:12.139Z,77.70
2023-04-04T08:36:15.241Z,77.68
2023-04-04T08:37:18.158Z,77.67
2023-04-04T08:38:20.575Z,77.79
2023-04-04T08:39:22.644Z,77.84
2023-04-04T08:40:24.773Z,77.87
2023-04-04T08:41:27.776Z,77.79
2023-04-04T08:42:35.266Z,77.71
2023-04-04T08:43:38.678Z,77.50
2023-04-04T08:44:45.426Z,77.43
2023-04-04T08:45:49.803Z,77.44
2023-04-04T08:46:53.054Z,77.36
2023-04-04T08:47:57.856Z,77.20
2023-04-04T08:49:02.926Z,77.29
2023-04-04T08:50:07.312Z,77.41
2023-04-04T08:51:13.074Z,77.35
2023-04-04T08:52:17.633Z,77.27
2023-04-04T08:53:19.882Z,77.37
2023-04-04T08:54:24.051Z,77.36
2023-04-04T08:55:26.156Z,77.30
2023-04-04T08:56:29.119Z,77.54
2023-04-04T08:57:31.772Z,77.64
2023-04-04T08:58:33.928Z,77.77
2023-04-04T08:59:36.592Z,77.75
2023-04-04T09:00:39.396Z,77.50
2023-04-04T09:01:42.357Z,77.40
2023-04-04T09:03:05.962Z,77.34
2023-04-04T09:05:19.770Z,77.11
2023-04-04T09:06:23.292Z,77.13
2023-04-04T09:07:27.542Z,77.12
2023-04-04T09:08:30.219Z,77.01
2023-04-04T09:09:33.053Z,76.88
2023-04-04T09:10:41.603Z,76.78
2023-04-04T09:11:45.414Z,76.58
2023-04-04T09:12:48.428Z,76.63
2023-04-04T09:13:51.974Z,76.67
2023-04-04T09:14:56.672Z,76.71
2023-04-04T09:16:00.252Z,76.62
2023-04-04T09:17:02.936Z,76.73
2023-04-04T09:18:05.110Z,76.80
2023-04-04T09:19:07.287Z,76.73
2023-04-04T09:20:38.916Z,76.65
2023-04-04T09:22:56.266Z,76.45
2023-04-04T09:24:00.253Z,76.59
2023-04-04T09:25:04.833Z,76.72
2023-04-04T09:26:07.799Z,76.52
2023-04-04T09:27:10.952Z,76.39
2023-04-04T09:28:15.276Z,76.28
2023-04-04T09:30:28.913Z,76.39
2023-04-04T09:31:31.305Z,76.43
2023-04-04T09:32:34.205Z,76.21
2023-04-04T09:33:38.274Z,76.21
2023-04-04T09:34:42.297Z,76.30
2023-04-04T09:36:57.152Z,76.20
2023-04-04T09:38:00.782Z,76.37
2023-04-04T09:39:04.407Z,76.19
2023-04-04T09:41:19.282Z,76.29
2023-04-04T09:42:23.807Z,76.55
2023-04-04T09:43:26.328Z,76.48
2023-04-04T09:44:29.223Z,76.55
2023-04-04T09:45:34.275Z,76.46
2023-04-04T09:46:36.906Z,76.22
2023-04-04T09:47:40.074Z,76.28
2023-04-04T09:48:45.923Z,76.34
2023-04-04T09:49:49.766Z,76.29
2023-04-04T09:50:52.095Z,76.24
2023-04-04T09:51:54.267Z,76.33
2023-04-04T09:52:58.271Z,76.48
2023-04-04T09:54:00.592Z,76.61
2023-04-04T09:55:06.824Z,76.50
2023-04-04T09:56:11.206Z,76.49
2023-04-04T09:57:14.034Z,76.31
2023-04-04T09:58:17.870Z,76.44
2023-04-04T09:59:20.173Z,76.49
2023-04-04T10:00:22.500Z,76.76
2023-04-04T10:01:24.988Z,76.99
2023-04-04T10:02:33.890Z,76.86
2023-04-04T10:03:36.911Z,76.51
2023-04-04T10:04:39.140Z,76.34
2023-04-04T10:05:42.451Z,76.33
2023-04-04T10:06:45.325Z,76.30
2023-04-04T10:07:47.892Z,75.93
2023-04-04T10:08:50.698Z,76.01
2023-04-04T10:09:52.915Z,76.09
2023-04-04T10:11:09.678Z,76.02
2023-04-04T10:12:08.983Z,75.76
2023-04-04T10:13:11.293Z,75.72
2023-04-04T10:14:13.533Z,75.67
2023-04-04T10:15:15.726Z,75.63
2023-04-04T10:16:18.976Z,75.65
2023-04-04T10:17:22.747Z,75.79
2023-04-04T10:18:26.744Z,75.94
2023-04-04T10:19:29.079Z,75.79
2023-04-04T10:20:32.918Z,75.69
2023-04-04T10:21:35.499Z,75.72
2023-04-04T10:22:38.335Z,75.66
2023-04-04T10:23:43.649Z,75.78
2023-04-04T10:24:45.961Z,75.90
2023-04-04T10:25:49.052Z,75.87
2023-04-04T10:26:51.379Z,76.00
2023-04-04T10:27:54.166Z,75.85
2023-04-04T10:28:56.270Z,75.65
2023-04-04T10:30:00.757Z,75.65
2023-04-04T10:31:25.560Z,75.37
2023-04-04T10:32:49.561Z,75.36
2023-04-04T10:34:18.575Z,75.47
2023-04-04T10:35:23.756Z,75.44
2023-04-04T10:37:42.161Z,75.73
2023-04-04T10:38:48.037Z,76.10
2023-04-04T10:39:59.742Z,75.85
2023-04-04T10:41:04.441Z,75.35
2023-04-04T10:42:07.199Z,75.09
2023-04-04T10:43:11.604Z,75.13
2023-04-04T10:45:36.583Z,75.28
2023-04-04T10:46:42.559Z,75.35
2023-04-04T10:47:46.395Z,75.16
2023-04-04T10:48:49.799Z,74.91
2023-04-04T10:49:52.565Z,74.76
2023-04-04T10:50:57.115Z,74.59
2023-04-04T10:51:59.293Z,74.61
2023-04-04T10:53:02.514Z,74.59
2023-04-04T10:54:06.148Z,74.64
2023-04-04T10:55:14.092Z,74.30
2023-04-04T10:56:19.693Z,74.12
2023-04-04T10:57:23.114Z,74.42
2023-04-04T10:58:27.315Z,74.48
2023-04-04T10:59:29.530Z,74.66
2023-04-04T11:00:31.966Z,74.74
2023-04-04T11:03:00.133Z,74.51
2023-04-04T11:04:21.622Z,74.21
2023-04-04T11:05:34.754Z,73.99
2023-04-04T11:07:01.210Z,73.84
2023-04-04T11:08:08.295Z,74.02
2023-04-04T11:09:11.238Z,73.92
2023-04-04T11:10:17.838Z,73.75
2023-04-04T11:11:23.103Z,73.43
2023-04-04T11:12:30.181Z,73.41
2023-04-04T11:13:34.000Z,73.57
2023-04-04T11:14:36.133Z,73.68
2023-04-04T11:17:11.749Z,73.65
2023-04-04T11:18:30.660Z,73.68
2023-04-04T11:19:18.726Z,73.91
2023-04-04T11:21:32.749Z,73.81
2023-04-04T11:22:35.878Z,73.60
2023-04-04T11:23:50.832Z,73.96
2023-04-04T11:24:59.850Z,73.73
2023-04-04T11:26:03.173Z,73.58
2023-04-04T11:27:05.403Z,73.93
2023-04-04T11:28:35.060Z,73.98
2023-04-04T11:29:50.837Z,73.96
2023-04-04T11:31:20.883Z,73.89
2023-04-04T11:32:50.120Z,73.74
2023-04-04T11:34:06.903Z,73.39
2023-04-04T11:35:10.302Z,73.23
2023-04-04T11:36:34.420Z,73.42
2023-04-04T11:38:57.013Z,73.09
2023-04-04T11:40:03.335Z,73.64
2023-04-04T11:41:05.565Z,73.33
2023-04-04T11:42:13.268Z,73.07
2023-04-04T11:43:15.946Z,73.10
2023-04-04T11:44:20.558Z,72.92
2023-04-04T11:45:24.988Z,72.96
2023-04-04T11:46:29.469Z,73.26
2023-04-04T11:47:31.881Z,73.26
2023-04-04T11:48:34.406Z,72.74
2023-04-04T11:49:42.963Z,72.58
2023-04-04T11:50:47.049Z,72.70
2023-04-04T11:51:49.259Z,73.00
2023-04-04T11:52:54.024Z,72.92
2023-04-04T11:53:56.264Z,72.75
2023-04-04T11:54:58.503Z,72.80
2023-04-04T11:56:01.098Z,72.75
2023-04-04T11:57:05.567Z,72.40
2023-04-04T11:58:13.404Z,72.06
2023-04-04T11:59:21.025Z,71.96
2023-04-04T12:00:34.824Z,72.01
2023-04-04T12:01:38.235Z,72.17
2023-04-04T12:02:42.154Z,71.99
2023-04-04T12:03:44.658Z,72.15
2023-04-04T12:04:47.922Z,72.45
2023-04-04T12:05:51.327Z,72.28
2023-04-04T12:06:56.113Z,72.52
2023-04-04T12:07:59.541Z,72.68
2023-04-04T12:09:03.503Z,73.00
2023-04-04T12:10:06.727Z,73.08
2023-04-04T12:11:08.950Z,73.04
2023-04-04T12:12:14.539Z,72.52
2023-04-04T12:13:16.822Z,71.96
2023-04-04T12:14:20.919Z,71.82
2023-04-04T12:15:23.023Z,71.56
2023-04-04T12:16:28.923Z,71.61
2023-04-04T12:17:31.631Z,71.85
2023-04-04T12:18:34.282Z,71.88
2023-04-04T12:19:38.093Z,71.87
2023-04-04T12:20:40.446Z,71.87
2023-04-04T12:21:42.491Z,72.03
2023-04-04T12:22:48.230Z,72.23
2023-04-04T12:23:51.497Z,71.71
2023-04-04T12:24:53.698Z,71.30
2023-04-04T12:25:56.653Z,71.33
2023-04-04T12:26:58.868Z,71.20
2023-04-04T12:28:04.011Z,71.10
2023-04-04T12:29:08.549Z,71.05
2023-04-04T12:30:13.189Z,71.35
2023-04-04T12:31:16.220Z,71.50
2023-04-04T12:32:19.018Z,71.49
2023-04-04T12:33:21.664Z,71.59
2023-04-04T12:34:26.448Z,71.56
2023-04-04T12:35:30.238Z,71.37
2023-04-04T12:36:33.022Z,71.47
2023-04-04T12:37:36.271Z,71.56
2023-04-04T12:38:57.730Z,71.61
2023-04-04T12:40:02.827Z,71.43
2023-04-04T12:42:24.288Z,71.62
2023-04-04T12:43:27.807Z,71.73
2023-04-04T12:45:45.643Z,71.25
2023-04-04T12:46:49.023Z,71.50
2023-04-04T12:49:03.243Z,71.67
2023-04-04T12:50:08.344Z,71.73
2023-04-04T12:51:10.750Z,71.42
2023-04-04T12:52:21.225Z,71.60
2023-04-04T12:53:29.568Z,71.66
2023-04-04T12:54:35.282Z,71.60
2023-04-04T12:55:37.971Z,71.45
2023-04-04T12:56:41.066Z,71.28
2023-04-04T12:57:45.006Z,71.39
2023-04-04T12:58:47.914Z,71.56
2023-04-04T12:59:50.984Z,71.67
2023-04-04T13:00:54.755Z,71.46
2023-04-04T13:01:57.685Z,71.44
2023-04-04T13:03:00.296Z,71.53
2023-04-04T13:04:03.488Z,71.12
2023-04-04T13:05:06.254Z,71.25
2023-04-04T13:06:18.759Z,71.13
2023-04-04T13:07:26.493Z,71.00
2023-04-04T13:08:29.078Z,70.86
2023-04-04T13:09:31.781Z,71.03
2023-04-04T13:10:57.029Z,71.11
2023-04-04T13:12:02.194Z,71.17
2023-04-04T13:13:06.633Z,71.26
2023-04-04T13:14:09.464Z,71.10
2023-04-04T13:15:13.374Z,71.26
2023-04-04T13:16:34.208Z,71.47
2023-04-04T13:17:47.228Z,71.50
2023-04-04T13:18:49.440Z,71.37
2023-04-04T13:19:52.530Z,71.22
2023-04-04T13:20:54.950Z,71.18
2023-04-04T13:21:58.400Z,71.37
2023-04-04T13:23:00.620Z,71.43
2023-04-04T13:24:03.581Z,71.25
2023-04-04T13:25:07.481Z,71.08
2023-04-04T13:26:10.180Z,71.13
2023-04-04T13:27:12.250Z,71.36
2023-04-04T13:28:14.878Z,71.19
2023-04-04T13:29:16.985Z,71.22
2023-04-04T13:30:20.450Z,70.87
2023-04-04T13:31:23.595Z,70.74
2023-04-04T13:32:26.285Z,70.80
2023-04-04T13:33:28.843Z,70.62
2023-04-04T13:34:30.923Z,70.86
2023-04-04T13:35:34.031Z,71.20
2023-04-04T13:36:36.664Z,71.07
2023-04-04T13:37:39.445Z,70.88
2023-04-04T13:38:41.387Z,71.03
2023-04-04T13:39:43.424Z,71.21
2023-04-04T13:40:46.813Z,71.48
2023-04-04T13:41:49.392Z,71.28
2023-04-04T13:42:51.458Z,71.24
2023-04-04T13:43:53.447Z,71.40
2023-04-04T13:44:55.651Z,71.25
2023-04-04T13:45:58.874Z,71.22
2023-04-04T13:47:02.225Z,71.13
2023-04-04T13:48:04.569Z,71.25
2023-04-04T13:49:07.772Z,71.15
2023-04-04T13:50:11.535Z,71.47
2023-04-04T13:51:13.712Z,71.56
2023-04-04T13:52:15.774Z,71.16
2023-04-04T13:53:18.388Z,71.24
2023-04-04T13:54:20.541Z,71.26
2023-04-04T13:55:22.757Z,71.52
2023-04-04T13:56:25.480Z,71.94
2023-04-04T13:57:27.678Z,72.07
2023-04-04T13:58:29.637Z,71.66
2023-04-04T13:59:31.815Z,71.29
2023-04-04T14:00:34.675Z,71.11
2023-04-04T14:01:38.388Z,71.21
2023-04-04T14:02:40.749Z,71.42
2023-04-04T14:03:42.945Z,71.59
2023-04-04T14:04:45.763Z,71.71
2023-04-04T14:05:48.227Z,71.67
2023-04-04T14:06:50.583Z,71.62
2023-04-04T14:07:52.829Z,71.61
2023-04-04T14:08:55.263Z,71.46
2023-04-04T14:09:57.432Z,71.48
2023-04-04T14:11:00.043Z,71.48